Time;durP1;ratioP1;P1;durP2;ratioP2;P2;SDS_P1;SDS_P2;PMS_P1;PMS_P2;Temp;Humidity;BMP_temperature;BMP_pressure;BME280_temperature;BME280_humidity;BME280_pressure;Samples;Min_cycle;Max_cycle;Signal;HPM_P1;HPM_P2
2021/09/22 00:00:05;;;;;;;21.35;13.50;;;9.90;99.90;;;;;;5010803;28;20061;-82
2021/09/22 00:02:31;;;;;;;20.48;12.98;;;9.90;99.90;;;;;;5012325;28;20037;-82
2021/09/22 00:04:56;;;;;;;16.75;10.23;;;9.90;99.90;;;;;;5006453;28;20037;-81
2021/09/22 00:07:22;;;;;;;21.13;10.63;;;9.80;99.90;;;;;;5010369;28;20026;-83
2021/09/22 00:09:47;;;;;;;15.98;9.88;;;9.80;99.90;;;;;;5010797;28;20436;-82
2021/09/22 00:12:13;;;;;;;16.23;10.70;;;9.80;99.90;;;;;;5009376;28;20088;-83
2021/09/22 00:14:38;;;;;;;16.30;11.02;;;9.80;99.90;;;;;;5011096;28;20034;-83
2021/09/22 00:17:04;;;;;;;13.82;9.77;;;9.80;99.90;;;;;;5010397;28;20037;-82
2021/09/22 00:19:30;;;;;;;14.10;8.88;;;9.80;99.90;;;;;;5011228;28;20025;-83
2021/09/22 00:21:55;;;;;;;17.85;11.07;;;9.80;99.90;;;;;;5009983;28;20059;-83
2021/09/22 00:24:21;;;;;;;15.23;9.73;;;9.70;99.90;;;;;;5009890;28;20470;-83
2021/09/22 00:26:46;;;;;;;14.30;9.25;;;9.70;99.90;;;;;;5009327;28;20379;-83
2021/09/22 00:29:12;;;;;;;19.88;10.32;;;9.60;99.90;;;;;;5009954;28;20088;-83
2021/09/22 00:31:37;;;;;;;19.45;12.50;;;9.60;99.90;;;;;;5008734;28;20073;-83
2021/09/22 00:34:06;;;;;;;17.15;10.30;;;9.60;99.90;;;;;;5009481;28;20069;-83
2021/09/22 00:36:32;;;;;;;25.48;13.30;;;9.60;99.90;;;;;;5010572;28;20029;-82
2021/09/22 00:38:58;;;;;;;19.85;12.35;;;9.60;99.90;;;;;;5010319;28;20114;-82
2021/09/22 00:41:23;;;;;;;20.95;13.18;;;9.60;99.90;;;;;;5010432;28;20557;-82
2021/09/22 00:43:49;;;;;;;22.23;13.48;;;9.50;99.90;;;;;;5009828;28;20026;-82
2021/09/22 00:46:15;;;;;;;22.92;14.55;;;9.50;99.90;;;;;;5008741;28;20026;-82
2021/09/22 00:48:40;;;;;;;16.80;11.52;;;9.50;99.90;;;;;;5009672;28;20022;-82
2021/09/22 00:51:08;;;;;;;18.85;11.63;;;9.50;99.90;;;;;;5010130;28;20061;-82
2021/09/22 00:53:34;;;;;;;18.10;11.52;;;9.50;99.90;;;;;;5009818;28;20083;-82
2021/09/22 00:56:03;;;;;;;20.20;13.90;;;9.50;99.90;;;;;;5008837;28;20041;-82
2021/09/22 00:58:29;;;;;;;20.58;13.55;;;9.50;99.90;;;;;;5010386;28;20030;-83
2021/09/22 01:00:55;;;;;;;20.30;13.00;;;9.40;99.90;;;;;;5008944;28;20133;-82
2021/09/22 01:03:21;;;;;;;23.58;13.25;;;9.40;99.90;;;;;;5010075;28;20101;-83
2021/09/22 01:05:47;;;;;;;19.88;10.60;;;9.30;99.90;;;;;;5011280;28;20030;-82
2021/09/22 01:08:15;;;;;;;19.63;12.45;;;9.30;99.90;;;;;;5014972;28;20029;-82
2021/09/22 01:10:41;;;;;;;20.95;12.90;;;9.30;99.90;;;;;;5014187;28;20022;-82
2021/09/22 01:13:06;;;;;;;22.48;14.35;;;9.30;99.90;;;;;;5013400;28;20029;-82
2021/09/22 01:15:35;;;;;;;13.05;9.38;;;9.30;99.90;;;;;;5011872;28;20133;-82
2021/09/22 01:18:02;;;;;;;13.25;8.70;;;9.30;99.90;;;;;;5012843;28;20022;-83
2021/09/22 01:20:30;;;;;;;15.18;10.00;;;9.30;99.90;;;;;;5014756;28;20391;-83
2021/09/22 01:22:57;;;;;;;16.65;10.40;;;9.20;99.90;;;;;;5012862;28;20026;-82
2021/09/22 01:25:23;;;;;;;21.88;13.50;;;9.20;99.90;;;;;;5011972;28;20026;-83
2021/09/22 01:27:54;;;;;;;23.95;15.00;;;9.20;99.90;;;;;;5006214;28;20041;-82
2021/09/22 01:30:20;;;;;;;20.50;13.55;;;9.20;99.90;;;;;;5013320;28;20517;-83
2021/09/22 01:33:00;;;;;;;22.95;13.43;;;9.20;99.90;;;;;;5008750;28;20041;-82
2021/09/22 01:35:31;;;;;;;25.35;12.90;;;9.20;99.90;;;;;;5013161;28;20032;-83
2021/09/22 01:37:57;;;;;;;23.88;14.20;;;9.20;99.90;;;;;;5012368;28;20038;-83
2021/09/22 01:40:22;;;;;;;30.30;15.73;;;9.10;99.90;;;;;;5013089;28;20030;-82
2021/09/22 01:42:48;;;;;;;26.48;15.27;;;9.10;99.90;;;;;;5013051;28;20057;-82
2021/09/22 01:45:16;;;;;;;25.80;16.00;;;9.10;99.90;;;;;;5011224;28;20029;-82
2021/09/22 01:47:41;;;;;;;24.35;15.68;;;9.10;99.90;;;;;;5012436;28;20108;-82
2021/09/22 01:50:12;;;;;;;24.42;14.50;;;9.10;99.90;;;;;;5013773;28;20108;-82
2021/09/22 01:52:39;;;;;;;31.80;16.95;;;9.10;99.90;;;;;;5013149;28;20040;-82
2021/09/22 01:55:06;;;;;;;25.95;16.55;;;9.10;99.90;;;;;;5010892;28;20125;-83
2021/09/22 01:57:32;;;;;;;26.48;15.32;;;9.00;99.90;;;;;;5012827;28;20033;-82
2021/09/22 01:59:58;;;;;;;25.65;14.70;;;9.00;99.90;;;;;;5010003;28;20021;-83
2021/09/22 02:02:24;;;;;;;26.10;15.95;;;9.00;99.90;;;;;;5014029;28;20117;-83
2021/09/22 02:04:49;;;;;;;24.15;14.07;;;8.90;99.90;;;;;;5011505;28;20513;-83
2021/09/22 02:07:15;;;;;;;24.83;15.18;;;9.00;99.90;;;;;;5013160;28;20447;-82
2021/09/22 02:09:41;;;;;;;30.63;17.27;;;8.90;99.90;;;;;;5012275;28;20025;-82
2021/09/22 02:12:07;;;;;;;33.75;17.25;;;8.90;99.90;;;;;;5012650;28;20116;-82
2021/09/22 02:14:32;;;;;;;31.50;17.63;;;8.90;99.90;;;;;;5012649;28;20025;-82
2021/09/22 02:16:58;;;;;;;27.38;17.92;;;8.80;99.90;;;;;;5008077;28;20037;-83
2021/09/22 02:19:24;;;;;;;32.15;19.40;;;8.80;99.90;;;;;;5012334;28;20022;-83
2021/09/22 02:21:50;;;;;;;32.20;18.65;;;8.90;99.90;;;;;;5012137;28;20045;-82
2021/09/22 02:24:15;;;;;;;38.58;20.52;;;8.80;99.90;;;;;;5012226;28;20029;-83
2021/09/22 02:26:41;;;;;;;36.67;19.85;;;8.90;99.90;;;;;;5012546;28;20026;-82
2021/09/22 02:29:07;;;;;;;28.70;15.68;;;8.80;99.90;;;;;;5006042;28;20144;-82
2021/09/22 02:31:32;;;;;;;38.78;19.27;;;8.90;99.90;;;;;;5012675;28;20025;-82
2021/09/22 02:33:58;;;;;;;38.65;20.65;;;8.80;99.90;;;;;;5012439;28;20018;-82
2021/09/22 02:36:25;;;;;;;37.50;20.13;;;8.80;99.90;;;;;;5011282;28;20119;-82
2021/09/22 02:38:51;;;;;;;30.73;18.17;;;8.80;99.90;;;;;;5004357;28;20030;-82
2021/09/22 02:41:16;;;;;;;30.88;17.08;;;8.70;99.90;;;;;;5011494;28;20065;-82
2021/09/22 02:43:42;;;;;;;32.80;18.42;;;8.70;99.90;;;;;;5011693;28;20041;-83
2021/09/22 02:46:07;;;;;;;27.50;17.02;;;8.70;99.90;;;;;;5010501;28;20088;-82
2021/09/22 02:48:33;;;;;;;31.33;16.67;;;8.60;99.90;;;;;;5012481;28;20026;-82
2021/09/22 02:50:59;;;;;;;18.98;11.77;;;8.70;99.90;;;;;;5010509;28;20037;-83
2021/09/22 02:53:24;;;;;;;19.75;11.60;;;8.60;99.90;;;;;;5012255;28;20393;-82
2021/09/22 02:55:50;;;;;;;26.08;13.82;;;8.60;99.90;;;;;;5010173;28;20037;-83
2021/09/22 02:58:15;;;;;;;35.58;18.17;;;8.60;99.90;;;;;;5011186;28;20026;-82
2021/09/22 03:00:41;;;;;;;35.60;17.05;;;8.50;99.90;;;;;;5011384;28;20072;-82
2021/09/22 03:03:06;;;;;;;37.75;19.23;;;8.50;99.90;;;;;;5011107;28;20500;-83
2021/09/22 03:05:32;;;;;;;43.22;22.80;;;8.50;99.90;;;;;;5010325;28;20021;-82
2021/09/22 03:07:57;;;;;;;52.05;24.63;;;8.50;99.90;;;;;;5011635;28;20436;-83
2021/09/22 03:10:23;;;;;;;48.55;24.13;;;8.60;99.90;;;;;;5011630;28;20034;-83
2021/09/22 03:12:49;;;;;;;36.45;19.77;;;8.60;99.90;;;;;;5010610;28;20513;-82
2021/09/22 03:15:15;;;;;;;44.25;22.05;;;8.60;99.90;;;;;;5011325;28;20048;-82
2021/09/22 03:17:40;;;;;;;45.25;23.05;;;8.50;99.90;;;;;;5010572;28;20034;-83
2021/09/22 03:20:06;;;;;;;30.90;17.10;;;8.50;99.90;;;;;;5011431;28;20033;-82
2021/09/22 03:22:32;;;;;;;32.20;16.88;;;8.50;99.90;;;;;;5009669;28;20568;-82
2021/09/22 03:24:59;;;;;;;33.05;17.55;;;8.50;99.90;;;;;;5000185;28;20056;-83
2021/09/22 03:27:24;;;;;;;30.38;17.13;;;8.40;99.90;;;;;;5011396;28;20034;-82
2021/09/22 03:29:50;;;;;;;38.33;19.35;;;8.40;99.90;;;;;;5011458;28;20437;-83
2021/09/22 03:32:16;;;;;;;29.95;17.80;;;8.30;99.90;;;;;;5011298;28;20145;-82
2021/09/22 03:34:41;;;;;;;37.08;19.20;;;8.40;99.90;;;;;;5005038;28;20076;-82
2021/09/22 03:37:07;;;;;;;56.90;27.92;;;8.40;99.90;;;;;;5011472;28;20096;-82
2021/09/22 03:39:33;;;;;;;54.70;27.27;;;8.40;99.90;;;;;;5011653;28;20112;-83
2021/09/22 03:41:58;;;;;;;48.63;26.13;;;8.40;99.90;;;;;;5010846;28;20038;-83
2021/09/22 03:44:25;;;;;;;39.95;21.90;;;8.50;99.90;;;;;;5007521;28;20381;-82
2021/09/22 03:46:51;;;;;;;40.70;21.77;;;8.50;99.90;;;;;;5016743;28;20064;-83
2021/09/22 03:49:17;;;;;;;21.95;13.23;;;8.50;99.90;;;;;;5009833;28;20030;-83
2021/09/22 03:51:43;;;;;;;20.48;10.57;;;8.40;99.90;;;;;;5011317;28;20397;-82
2021/09/22 03:54:09;;;;;;;32.30;15.82;;;8.40;99.90;;;;;;5009566;28;20072;-83
2021/09/22 03:56:34;;;;;;;37.58;18.35;;;8.40;99.90;;;;;;5010111;28;20665;-83
2021/09/22 03:59:00;;;;;;;40.42;20.05;;;8.40;99.90;;;;;;5011625;28;20018;-82
2021/09/22 04:01:27;;;;;;;40.55;20.50;;;8.40;99.90;;;;;;5010700;28;20038;-83
2021/09/22 04:03:52;;;;;;;45.13;22.77;;;8.40;99.90;;;;;;5009866;28;20026;-83
2021/09/22 04:06:18;;;;;;;53.75;25.13;;;8.40;99.90;;;;;;5009942;28;20513;-83
2021/09/22 04:08:43;;;;;;;48.63;23.58;;;8.40;99.90;;;;;;5010266;28;20512;-83
2021/09/22 04:11:09;;;;;;;52.60;25.27;;;8.40;99.90;;;;;;5010526;28;20026;-83
2021/09/22 04:13:35;;;;;;;38.80;20.90;;;8.40;99.90;;;;;;5007618;28;20030;-83
2021/09/22 04:16:00;;;;;;;56.08;25.90;;;8.40;99.90;;;;;;5004554;28;20057;-83
2021/09/22 04:18:26;;;;;;;56.92;28.75;;;8.40;99.90;;;;;;5011419;28;20026;-83
2021/09/22 04:20:52;;;;;;;61.90;32.38;;;8.40;99.90;;;;;;5011213;28;20052;-83
2021/09/22 04:23:17;;;;;;;79.10;36.05;;;8.40;99.90;;;;;;5010403;28;20029;-83
2021/09/22 04:25:43;;;;;;;64.15;33.40;;;8.40;99.90;;;;;;5010889;28;20041;-83
2021/09/22 04:28:08;;;;;;;67.80;33.08;;;8.50;99.90;;;;;;5010943;28;20117;-83
2021/09/22 04:30:34;;;;;;;40.97;23.08;;;8.50;99.90;;;;;;5010814;28;20536;-83
2021/09/22 04:33:00;;;;;;;33.75;16.70;;;8.50;99.90;;;;;;5006808;28;20049;-83
2021/09/22 04:35:25;;;;;;;36.80;14.68;;;8.50;99.90;;;;;;5012414;28;20080;-83
2021/09/22 04:37:53;;;;;;;31.52;13.20;;;8.40;99.90;;;;;;5012552;28;20021;-83
2021/09/22 04:40:18;;;;;;;45.05;13.88;;;8.20;99.90;;;;;;5013145;28;20503;-83
2021/09/22 04:42:44;;;;;;;28.85;15.40;;;8.20;99.90;;;;;;5017757;28;20104;-82
2021/09/22 04:45:10;;;;;;;33.72;18.05;;;8.10;99.90;;;;;;5015238;28;20072;-83
2021/09/22 04:47:37;;;;;;;32.58;18.08;;;8.10;99.90;;;;;;5023820;28;20068;-83
2021/09/22 04:50:04;;;;;;;39.60;20.52;;;8.10;99.90;;;;;;5015166;28;20041;-83
2021/09/22 04:52:30;;;;;;;39.58;21.77;;;8.10;99.90;;;;;;5014245;28;20379;-83
2021/09/22 04:54:55;;;;;;;45.92;22.85;;;8.10;99.90;;;;;;5013539;28;20044;-83
2021/09/22 04:57:21;;;;;;;44.47;23.33;;;8.10;99.90;;;;;;5015081;28;20030;-83
2021/09/22 04:59:46;;;;;;;47.45;25.23;;;8.10;99.90;;;;;;5014325;28;20036;-83
2021/09/22 05:02:12;;;;;;;47.22;27.05;;;8.10;99.90;;;;;;5014644;28;20125;-83
2021/09/22 05:04:37;;;;;;;57.67;29.80;;;8.10;99.90;;;;;;5013016;28;20021;-83
2021/09/22 05:07:03;;;;;;;58.15;29.75;;;8.10;99.90;;;;;;5013083;28;20022;-83
2021/09/22 05:09:29;;;;;;;57.75;28.48;;;8.10;99.90;;;;;;5011761;28;20029;-83
2021/09/22 05:11:54;;;;;;;54.58;28.55;;;8.10;99.90;;;;;;5013621;28;20482;-83
2021/09/22 05:14:20;;;;;;;54.97;28.52;;;8.10;99.90;;;;;;5010208;28;20022;-83
2021/09/22 05:16:46;;;;;;;53.65;30.58;;;8.10;99.90;;;;;;5025623;28;20389;-83
2021/09/22 05:19:12;;;;;;;62.67;32.40;;;8.10;99.90;;;;;;5008826;28;20026;-83
2021/09/22 05:21:37;;;;;;;55.40;25.92;;;8.10;99.90;;;;;;5014668;28;20034;-83
2021/09/22 05:24:03;;;;;;;53.08;27.73;;;8.10;99.90;;;;;;5013189;28;20085;-83
2021/09/22 05:26:29;;;;;;;56.72;27.88;;;8.10;99.90;;;;;;5015361;28;20034;-83
2021/09/22 05:28:54;;;;;;;42.30;23.92;;;8.10;99.90;;;;;;5031351;28;20030;-83
2021/09/22 05:31:20;;;;;;;35.15;20.20;;;8.10;99.90;;;;;;5014481;28;20030;-83
2021/09/22 05:33:46;;;;;;;44.28;23.15;;;8.00;99.90;;;;;;5015134;28;20137;-85
2021/09/22 05:36:11;;;;;;;41.60;22.35;;;8.00;99.90;;;;;;5014009;28;20041;-84
2021/09/22 05:38:37;;;;;;;38.92;20.95;;;8.00;99.90;;;;;;5009910;28;20484;-85
2021/09/22 05:41:02;;;;;;;30.80;17.27;;;7.90;99.90;;;;;;5013604;28;20025;-84
2021/09/22 05:43:28;;;;;;;44.35;23.55;;;7.90;99.90;;;;;;5014781;28;20022;-84
2021/09/22 05:45:53;;;;;;;45.25;22.63;;;7.90;99.90;;;;;;5011675;28;20034;-84
2021/09/22 05:48:19;;;;;;;40.88;21.40;;;7.90;99.90;;;;;;5012919;28;20026;-83
2021/09/22 05:50:45;;;;;;;35.50;18.20;;;7.90;99.90;;;;;;5012700;28;20034;-84
2021/09/22 05:53:10;;;;;;;41.85;21.15;;;8.00;99.90;;;;;;5012376;28;20100;-84
2021/09/22 05:55:36;;;;;;;31.20;17.45;;;8.00;99.90;;;;;;5011793;28;20113;-84
2021/09/22 05:58:01;;;;;;;31.27;16.70;;;8.00;99.90;;;;;;5011056;28;20109;-84
2021/09/22 06:00:27;;;;;;;32.38;17.92;;;8.00;99.90;;;;;;5008903;28;20497;-82
2021/09/22 06:02:52;;;;;;;39.80;22.35;;;8.10;99.90;;;;;;5011904;28;20029;-84
2021/09/22 06:05:18;;;;;;;34.75;19.30;;;8.10;99.90;;;;;;5014668;28;20586;-83
2021/09/22 06:07:43;;;;;;;38.13;18.92;;;8.10;99.90;;;;;;5012839;28;20474;-83
2021/09/22 06:10:10;;;;;;;32.85;18.05;;;8.20;99.90;;;;;;5009277;28;20022;-83
2021/09/22 06:12:35;;;;;;;35.13;18.45;;;8.20;99.90;;;;;;5011233;28;20480;-83
2021/09/22 06:15:01;;;;;;;29.88;17.33;;;8.20;99.90;;;;;;5009288;28;20034;-83
2021/09/22 06:17:26;;;;;;;30.27;18.27;;;8.30;99.90;;;;;;5001643;28;20026;-82
2021/09/22 06:19:52;;;;;;;31.55;18.45;;;8.30;99.90;;;;;;5005488;28;20509;-83
2021/09/22 06:22:23;;;;;;;22.00;14.68;;;8.30;99.90;;;;;;5013265;28;20058;-83
2021/09/22 06:24:58;;;;;;;21.80;14.45;;;8.40;99.90;;;;;;5005817;28;20027;-84
2021/09/22 06:27:24;;;;;;;29.23;17.13;;;8.40;99.90;;;;;;5022109;28;20132;-84
2021/09/22 06:29:50;;;;;;;33.58;19.65;;;8.40;99.90;;;;;;5009193;28;20120;-84
2021/09/22 06:32:16;;;;;;;38.67;22.13;;;8.50;99.90;;;;;;5002603;28;20073;-82
2021/09/22 06:34:42;;;;;;;47.97;24.08;;;8.50;99.90;;;;;;5004596;28;20060;-82
2021/09/22 06:37:08;;;;;;;46.58;25.55;;;8.60;99.90;;;;;;5006242;28;20061;-81
2021/09/22 06:39:34;;;;;;;57.40;29.38;;;8.70;99.90;;;;;;5005008;28;20032;-83
2021/09/22 06:41:59;;;;;;;58.38;30.83;;;8.80;99.90;;;;;;5002559;28;20038;-83
2021/09/22 06:44:25;;;;;;;63.78;32.55;;;9.00;99.90;;;;;;5007167;28;20036;-83
2021/09/22 06:46:50;;;;;;;71.97;36.30;;;9.00;99.90;;;;;;5004683;28;20030;-84
2021/09/22 06:49:16;;;;;;;71.47;36.97;;;9.20;99.90;;;;;;5019363;28;20394;-84
2021/09/22 06:51:42;;;;;;;73.25;38.05;;;9.30;99.90;;;;;;5008501;28;20026;-83
2021/09/22 06:54:07;;;;;;;68.93;37.17;;;9.40;99.90;;;;;;5006648;28;20029;-84
2021/09/22 06:56:33;;;;;;;71.43;37.00;;;9.50;99.90;;;;;;5021374;28;20034;-84
2021/09/22 06:58:59;;;;;;;70.35;35.13;;;9.70;99.90;;;;;;5006025;28;20351;-84
2021/09/22 07:01:24;;;;;;;66.93;33.85;;;9.80;99.90;;;;;;5023176;28;20041;-84
2021/09/22 07:03:50;;;;;;;66.90;35.88;;;9.90;99.90;;;;;;5005010;28;20026;-84
2021/09/22 07:06:15;;;;;;;65.15;37.40;;;10.10;99.90;;;;;;5004496;28;20030;-84
2021/09/22 07:08:41;;;;;;;58.55;32.92;;;10.20;99.90;;;;;;5005577;28;20496;-92
2021/09/22 07:11:07;;;;;;;61.67;33.75;;;10.30;99.90;;;;;;5004790;28;20041;-83
2021/09/22 07:13:36;;;;;;;58.88;34.20;;;10.40;99.90;;;;;;5003819;28;20044;-82
2021/09/22 07:16:02;;;;;;;58.05;33.58;;;10.50;99.90;;;;;;5005638;28;20037;-84
2021/09/22 07:18:28;;;;;;;61.70;33.33;;;10.60;99.90;;;;;;5006978;28;20021;-83
2021/09/22 07:20:53;;;;;;;53.80;31.38;;;10.70;99.90;;;;;;5011123;28;20124;-85
2021/09/22 07:23:19;;;;;;;54.42;32.95;;;10.90;99.90;;;;;;5008561;28;20084;-83
2021/09/22 07:25:44;;;;;;;58.03;32.03;;;11.00;99.90;;;;;;5006096;28;20026;-84
2021/09/22 07:28:10;;;;;;;51.70;30.90;;;11.10;99.90;;;;;;5008754;28;20030;-84
2021/09/22 07:30:36;;;;;;;51.25;28.88;;;11.30;99.90;;;;;;5008627;28;20030;-85
2021/09/22 07:33:04;;;;;;;51.30;30.52;;;11.40;99.90;;;;;;5007085;28;20046;-84
2021/09/22 07:35:29;;;;;;;46.00;27.83;;;11.50;99.90;;;;;;5006370;28;20062;-83
2021/09/22 07:37:55;;;;;;;47.45;28.15;;;11.60;99.90;;;;;;5004504;28;20077;-85
2021/09/22 07:40:21;;;;;;;47.75;28.08;;;11.70;99.90;;;;;;5002040;28;20358;-85
2021/09/22 07:42:46;;;;;;;37.08;26.17;;;11.80;99.90;;;;;;5002834;28;20037;-84
2021/09/22 07:45:13;;;;;;;46.15;26.80;;;11.90;99.90;;;;;;5021650;28;20022;-85
2021/09/22 07:47:40;;;;;;;43.75;25.95;;;11.90;99.90;;;;;;4998249;28;20090;-84
2021/09/22 07:50:08;;;;;;;45.33;27.50;;;12.00;99.90;;;;;;4998094;28;20023;-84
2021/09/22 07:52:35;;;;;;;47.78;26.67;;;12.10;99.90;;;;;;5003098;28;20061;-85
2021/09/22 07:55:02;;;;;;;44.72;26.13;;;12.20;99.90;;;;;;5007082;28;20173;-84
2021/09/22 07:57:28;;;;;;;40.40;25.67;;;12.30;99.90;;;;;;5003730;28;20396;-84
2021/09/22 07:59:55;;;;;;;40.25;25.10;;;12.40;99.90;;;;;;5001557;28;20032;-84
2021/09/22 08:02:21;;;;;;;36.92;24.30;;;12.50;99.90;;;;;;5001976;28;20123;-84
2021/09/22 08:04:46;;;;;;;42.58;23.95;;;12.70;99.90;;;;;;5001892;28;20054;-83
2021/09/22 08:07:12;;;;;;;37.28;23.50;;;12.80;99.90;;;;;;5001895;28;20040;-84
2021/09/22 08:09:37;;;;;;;32.90;22.70;;;12.80;99.90;;;;;;5002750;28;20041;-84
2021/09/22 08:12:03;;;;;;;34.90;21.83;;;12.90;99.90;;;;;;5003922;28;20371;-84
2021/09/22 08:14:29;;;;;;;36.25;22.55;;;13.10;99.90;;;;;;5015701;28;20026;-83
2021/09/22 08:16:58;;;;;;;37.65;23.33;;;13.10;99.90;;;;;;4999642;28;20045;-83
2021/09/22 08:19:25;;;;;;;35.38;21.50;;;13.30;99.90;;;;;;5001530;28;20034;-83
2021/09/22 08:21:51;;;;;;;35.63;20.88;;;13.40;99.90;;;;;;5000059;28;20030;-83
2021/09/22 08:24:17;;;;;;;34.05;22.90;;;13.50;99.90;;;;;;4998993;28;20455;-82
2021/09/22 08:26:42;;;;;;;33.95;21.40;;;13.60;99.90;;;;;;5011017;28;20021;-82
2021/09/22 08:29:08;;;;;;;33.60;21.58;;;13.70;99.90;;;;;;5008496;28;20342;-82
2021/09/22 08:31:33;;;;;;;32.80;22.45;;;13.80;99.90;;;;;;5006196;28;20030;-83
2021/09/22 08:33:59;;;;;;;34.55;22.30;;;13.90;99.90;;;;;;5007649;28;20457;-83
2021/09/22 08:36:25;;;;;;;30.52;20.83;;;14.00;99.90;;;;;;5006200;28;20536;-82
2021/09/22 08:38:51;;;;;;;30.50;21.05;;;14.10;99.90;;;;;;5019106;28;20030;-83
2021/09/22 08:41:17;;;;;;;30.58;20.33;;;14.20;99.90;;;;;;5006790;28;20424;-82
2021/09/22 08:43:43;;;;;;;32.60;21.95;;;14.40;99.90;;;;;;5006598;28;20030;-82
2021/09/22 08:46:09;;;;;;;27.88;19.52;;;14.50;99.90;;;;;;5006774;28;20037;-83
2021/09/22 08:48:35;;;;;;;28.95;19.10;;;14.60;99.90;;;;;;5005557;28;20060;-82
2021/09/22 08:51:01;;;;;;;28.40;19.05;;;14.90;99.90;;;;;;5003921;28;20026;-84
2021/09/22 08:53:27;;;;;;;30.85;18.83;;;15.00;99.90;;;;;;5006413;28;20509;-83
2021/09/22 08:55:52;;;;;;;25.65;17.80;;;15.20;99.90;;;;;;5006187;28;20544;-83
2021/09/22 08:58:18;;;;;;;24.50;18.05;;;15.40;99.90;;;;;;5001478;28;20030;-84
2021/09/22 09:00:46;;;;;;;25.65;17.60;;;15.50;99.90;;;;;;5006433;28;20036;-84
2021/09/22 09:03:40;;;;;;;23.60;16.70;;;15.70;99.80;;;;;;5003966;28;20025;-84
2021/09/22 09:06:18;;;;;;;23.33;16.20;;;15.90;99.30;;;;;;5002541;28;20122;-85
2021/09/22 09:08:43;;;;;;;22.63;15.85;;;16.00;98.90;;;;;;5017232;28;20036;-84
2021/09/22 09:11:09;;;;;;;22.63;15.40;;;16.10;98.70;;;;;;5003051;28;20037;-85
2021/09/22 09:13:47;;;;;;;20.60;15.18;;;16.20;98.30;;;;;;5005020;28;20367;-83
2021/09/22 09:16:17;;;;;;;22.08;15.50;;;16.40;98.20;;;;;;5001750;28;20492;-84
2021/09/22 09:18:51;;;;;;;19.38;13.90;;;16.50;97.70;;;;;;5004188;28;20030;-84
2021/09/22 09:21:17;;;;;;;20.35;14.35;;;16.60;97.50;;;;;;5019696;28;20037;-84
2021/09/22 09:23:55;;;;;;;19.65;13.98;;;16.70;97.20;;;;;;5004824;28;20037;-84
2021/09/22 09:26:24;;;;;;;21.90;14.50;;;16.80;96.70;;;;;;5001955;28;20030;-85
2021/09/22 09:28:53;;;;;;;19.35;12.25;;;16.90;96.40;;;;;;5005405;28;20022;-83
2021/09/22 09:31:19;;;;;;;17.52;11.57;;;17.00;96.20;;;;;;5005498;28;20523;-83
2021/09/22 09:33:54;;;;;;;19.63;12.20;;;17.10;95.90;;;;;;5008930;28;20129;-82
2021/09/22 09:36:23;;;;;;;19.67;12.85;;;17.10;95.20;;;;;;5025297;28;20033;-85
2021/09/22 09:38:54;;;;;;;21.50;13.98;;;17.20;94.80;;;;;;5008811;28;20038;-84
2021/09/22 09:41:33;;;;;;;20.45;12.38;;;17.20;94.10;;;;;;5025650;28;20136;-85
2021/09/22 09:44:01;;;;;;;19.73;12.68;;;17.30;93.80;;;;;;5012885;28;20546;-84
2021/09/22 09:46:29;;;;;;;19.88;14.00;;;17.30;93.60;;;;;;5012443;28;20436;-84
2021/09/22 09:49:16;;;;;;;21.40;13.20;;;17.30;93.10;;;;;;5010549;28;20385;-85
2021/09/22 09:51:51;;;;;;;20.10;13.23;;;17.30;93.10;;;;;;5012310;28;20034;-85
2021/09/22 09:54:29;;;;;;;20.67;14.02;;;17.30;92.90;;;;;;5022487;28;20029;-85
2021/09/22 09:57:07;;;;;;;20.00;13.48;;;17.40;92.70;;;;;;5008598;28;20446;-84
2021/09/22 09:59:52;;;;;;;17.60;12.48;;;17.40;92.40;;;;;;5010776;28;20030;-85
2021/09/22 10:02:30;;;;;;;22.85;12.15;;;17.50;92.10;;;;;;5008547;28;20033;-84
2021/09/22 10:04:57;;;;;;;18.15;11.48;;;17.60;92.10;;;;;;5003609;28;20043;-85
2021/09/22 10:07:23;;;;;;;17.52;13.02;;;17.70;91.70;;;;;;5004730;28;20027;-84
2021/09/22 10:09:50;;;;;;;18.42;11.63;;;17.80;91.40;;;;;;5003116;28;20041;-84
2021/09/22 10:12:18;;;;;;;22.95;11.88;;;18.00;90.70;;;;;;5008373;28;20075;-85
2021/09/22 10:14:45;;;;;;;19.02;11.35;;;18.10;90.50;;;;;;5006286;28;20552;-84
2021/09/22 10:17:13;;;;;;;18.27;10.70;;;18.20;90.00;;;;;;5008241;28;20113;-82
2021/09/22 10:19:38;;;;;;;15.45;10.30;;;18.40;89.30;;;;;;5007683;28;20033;-82
2021/09/22 10:22:05;;;;;;;17.52;11.05;;;18.40;88.20;;;;;;5006706;28;20033;-83
2021/09/22 10:24:31;;;;;;;16.45;10.15;;;18.50;87.90;;;;;;5007574;28;20510;-83
2021/09/22 10:26:57;;;;;;;13.10;9.20;;;18.60;87.30;;;;;;5007144;28;20034;-83
2021/09/22 10:29:26;;;;;;;13.57;9.05;;;18.70;86.80;;;;;;5021854;28;20105;-83
2021/09/22 10:31:53;;;;;;;16.80;10.50;;;18.80;86.10;;;;;;5008089;28;20030;-83
2021/09/22 10:34:34;;;;;;;14.40;9.30;;;18.80;85.20;;;;;;5005571;28;20795;-83
2021/09/22 10:37:05;;;;;;;15.05;10.55;;;18.80;85.00;;;;;;5001919;28;20029;-83
2021/09/22 10:39:34;;;;;;;15.73;9.88;;;18.70;85.50;;;;;;5003855;28;20028;-84
2021/09/22 10:42:00;;;;;;;15.43;10.32;;;18.80;85.70;;;;;;5008908;28;20409;-83
2021/09/22 10:44:35;;;;;;;14.77;10.13;;;18.90;85.10;;;;;;5007309;28;20102;-81
2021/09/22 10:47:30;;;;;;;17.08;10.27;;;18.90;84.20;;;;;;5007408;28;20057;-84
2021/09/22 10:49:56;;;;;;;14.73;10.10;;;19.00;83.50;;;;;;5003898;28;20513;-83
2021/09/22 10:52:29;;;;;;;14.20;9.57;;;19.00;83.30;;;;;;5010699;28;20029;-84
2021/09/22 10:55:13;;;;;;;16.15;9.45;;;19.10;82.70;;;;;;5002329;28;20026;-83
2021/09/22 10:57:40;;;;;;;16.33;9.13;;;19.10;82.30;;;;;;5010449;28;20088;-83
2021/09/22 11:00:24;;;;;;;12.32;8.80;;;19.20;82.10;;;;;;5014500;28;20062;-84
2021/09/22 11:02:53;;;;;;;17.98;10.73;;;19.30;81.60;;;;;;5013540;28;20041;-83
2021/09/22 11:05:28;;;;;;;13.02;8.65;;;19.30;81.60;;;;;;5016271;28;20037;-84
2021/09/22 11:07:58;;;;;;;14.18;9.63;;;19.30;81.10;;;;;;5011765;28;20065;-83
2021/09/22 11:10:31;;;;;;;15.10;8.85;;;19.30;80.10;;;;;;5029033;28;20107;-84
2021/09/22 11:13:20;;;;;;;13.68;9.48;;;19.30;80.20;;;;;;5007440;28;20409;-82
2021/09/22 11:15:46;;;;;;;13.65;8.80;;;19.30;80.10;;;;;;5014708;28;20026;-84
2021/09/22 11:18:14;;;;;;;12.35;8.88;;;19.30;80.40;;;;;;5009260;28;20504;-84
2021/09/22 11:20:40;;;;;;;15.40;7.10;;;19.30;79.60;;;;;;5008856;28;20025;-83
2021/09/22 11:23:10;;;;;;;12.57;7.38;;;19.40;79.60;;;;;;5009255;28;20034;-83
2021/09/22 11:25:36;;;;;;;13.70;8.05;;;19.40;78.70;;;;;;5013574;28;20053;-83
2021/09/22 11:28:06;;;;;;;13.90;8.27;;;19.50;78.40;;;;;;5008358;28;20746;-83
2021/09/22 11:30:31;;;;;;;11.45;7.80;;;19.50;78.00;;;;;;5002176;28;20104;-83
2021/09/22 11:32:58;;;;;;;12.25;6.97;;;19.60;78.10;;;;;;5002320;28;20061;-86
2021/09/22 11:35:28;;;;;;;14.73;8.85;;;19.70;77.90;;;;;;5008977;28;20026;-83
2021/09/22 11:37:56;;;;;;;11.13;8.10;;;19.70;76.70;;;;;;5019818;28;20030;-83
2021/09/22 11:40:34;;;;;;;13.38;7.47;;;19.60;76.70;;;;;;5002023;28;20478;-82
2021/09/22 11:43:06;;;;;;;14.55;7.30;;;19.70;76.60;;;;;;5003933;28;20088;-82
2021/09/22 11:45:53;;;;;;;10.05;7.03;;;19.80;75.60;;;;;;5007216;28;20065;-83
2021/09/22 11:48:36;;;;;;;9.40;6.53;;;19.80;75.50;;;;;;5020628;28;20030;-83
2021/09/22 11:51:08;;;;;;;11.07;6.93;;;19.90;75.40;;;;;;5007454;28;20053;-84
2021/09/22 11:53:37;;;;;;;11.55;6.22;;;20.00;75.20;;;;;;5007135;28;20049;-83
2021/09/22 11:56:04;;;;;;;11.63;6.90;;;20.00;75.40;;;;;;5004885;28;20026;-84
2021/09/22 11:58:32;;;;;;;10.30;7.25;;;20.10;75.30;;;;;;5005307;28;20053;-84
2021/09/22 12:01:01;;;;;;;10.68;5.47;;;20.20;74.90;;;;;;5012078;28;20033;-84
2021/09/22 12:03:29;;;;;;;8.68;5.55;;;20.30;75.50;;;;;;5012079;28;20029;-84
2021/09/22 12:06:07;;;;;;;11.05;6.50;;;20.40;75.30;;;;;;5012585;28;20045;-83
2021/09/22 12:08:35;;;;;;;12.07;7.18;;;20.50;74.20;;;;;;5013914;28;20057;-84
2021/09/22 12:11:01;;;;;;;12.63;7.88;;;20.50;73.60;;;;;;5013016;28;20028;-83
2021/09/22 12:13:28;;;;;;;12.82;7.88;;;20.40;73.70;;;;;;5010154;28;20433;-83
2021/09/22 12:15:58;;;;;;;14.20;7.72;;;20.40;73.20;;;;;;5012666;28;20116;-84
2021/09/22 12:18:25;;;;;;;11.48;7.32;;;20.50;73.30;;;;;;5012789;28;20497;-84
2021/09/22 12:20:51;;;;;;;10.73;6.40;;;20.50;73.40;;;;;;5012984;28;20025;-83
2021/09/22 12:23:24;;;;;;;13.98;7.53;;;20.60;73.50;;;;;;5012350;28;20075;-84
2021/09/22 12:25:50;;;;;;;10.70;7.28;;;20.60;72.50;;;;;;5018086;28;20137;-84
2021/09/22 12:28:21;;;;;;;9.73;6.47;;;20.70;72.90;;;;;;5008298;28;20121;-84
2021/09/22 12:30:47;;;;;;;8.63;5.50;;;20.70;72.50;;;;;;5013429;28;20026;-83
2021/09/22 12:33:18;;;;;;;9.98;5.97;;;20.80;72.50;;;;;;5012198;28;20281;-83